sensor_id;sensor_type;location;lat;lon;timestamp;temperature;humidity
10968;DHT22;5536;49.602;10.980;2022-09-16T00:01:00;14.20;99.90
10968;DHT22;5536;49.602;10.980;2022-09-16T00:03:27;14.30;99.90
10968;DHT22;5536;49.602;10.980;2022-09-16T00:05:54;14.30;99.90
10968;DHT22;5536;49.602;10.980;2022-09-16T00:08:23;14.30;99.90
10968;DHT22;5536;49.602;10.980;2022-09-16T00:10:50;14.30;99.90
10968;DHT22;5536;49.602;10.980;2022-09-16T00:13:18;14.30;99.90
10968;DHT22;5536;49.602;10.980;2022-09-16T00:15:48;14.30;99.90
10968;DHT22;5536;49.602;10.980;2022-09-16T00:18:16;14.20;99.90
10968;DHT22;5536;49.602;10.980;2022-09-16T00:20:45;14.20;99.90
10968;DHT22;5536;49.602;10.980;2022-09-16T00:23:13;14.30;99.90
10968;DHT22;5536;49.602;10.980;2022-09-16T00:25:41;14.30;99.90
10968;DHT22;5536;49.602;10.980;2022-09-16T00:28:09;14.20;99.90
10968;DHT22;5536;49.602;10.980;2022-09-16T00:30:36;14.20;99.90
10968;DHT22;5536;49.602;10.980;2022-09-16T00:33:04;14.20;99.90
10968;DHT22;5536;49.602;10.980;2022-09-16T00:35:31;14.20;99.90
10968;DHT22;5536;49.602;10.980;2022-09-16T00:37:58;14.20;99.90
10968;DHT22;5536;49.602;10.980;2022-09-16T00:40:25;14.20;99.90
10968;DHT22;5536;49.602;10.980;2022-09-16T00:42:53;14.20;99.90
10968;DHT22;5536;49.602;10.980;2022-09-16T00:45:22;14.20;99.90
10968;DHT22;5536;49.602;10.980;2022-09-16T00:47:51;14.20;99.90
10968;DHT22;5536;49.602;10.980;2022-09-16T00:50:22;14.20;99.90
10968;DHT22;5536;49.602;10.980;2022-09-16T00:52:55;14.20;99.90
10968;DHT22;5536;49.602;10.980;2022-09-16T00:55:25;14.20;99.90
10968;DHT22;5536;49.602;10.980;2022-09-16T00:57:58;14.10;99.90
10968;DHT22;5536;49.602;10.980;2022-09-16T01:00:26;14.10;99.90
10968;DHT22;5536;49.602;10.980;2022-09-16T01:02:53;14.10;99.90
10968;DHT22;5536;49.602;10.980;2022-09-16T01:05:22;14.10;99.90
10968;DHT22;5536;49.602;10.980;2022-09-16T01:07:52;14.10;99.90
10968;DHT22;5536;49.602;10.980;2022-09-16T01:10:22;14.00;99.90
10968;DHT22;5536;49.602;10.980;2022-09-16T01:12:54;14.00;99.90
10968;DHT22;5536;49.602;10.980;2022-09-16T01:15:31;14.10;99.90
10968;DHT22;5536;49.602;10.980;2022-09-16T01:18:08;14.00;99.90
10968;DHT22;5536;49.602;10.980;2022-09-16T01:20:54;14.00;99.90
10968;DHT22;5536;49.602;10.980;2022-09-16T01:23:48;14.00;99.90
10968;DHT22;5536;49.602;10.980;2022-09-16T01:26:37;14.00;99.90
10968;DHT22;5536;49.602;10.980;2022-09-16T01:29:31;14.00;99.90
10968;DHT22;5536;49.602;10.980;2022-09-16T01:32:06;13.90;99.90
10968;DHT22;5536;49.602;10.980;2022-09-16T01:34:43;13.90;99.90
10968;DHT22;5536;49.602;10.980;2022-09-16T01:37:19;13.90;99.90
10968;DHT22;5536;49.602;10.980;2022-09-16T01:39:55;13.80;99.90
10968;DHT22;5536;49.602;10.980;2022-09-16T01:42:28;13.80;99.90
10968;DHT22;5536;49.602;10.980;2022-09-16T01:45:04;13.90;99.90
10968;DHT22;5536;49.602;10.980;2022-09-16T01:47:37;13.90;99.90
10968;DHT22;5536;49.602;10.980;2022-09-16T01:50:14;13.90;99.90
10968;DHT22;5536;49.602;10.980;2022-09-16T01:52:48;13.80;99.90
10968;DHT22;5536;49.602;10.980;2022-09-16T01:55:21;13.80;99.90
10968;DHT22;5536;49.602;10.980;2022-09-16T01:57:52;13.80;99.90
10968;DHT22;5536;49.602;10.980;2022-09-16T02:00:21;13.80;99.90
10968;DHT22;5536;49.602;10.980;2022-09-16T02:02:54;13.80;99.90
10968;DHT22;5536;49.602;10.980;2022-09-16T02:05:25;13.70;99.90
10968;DHT22;5536;49.602;10.980;2022-09-16T02:07:56;13.70;99.90
10968;DHT22;5536;49.602;10.980;2022-09-16T02:10:27;13.70;99.90
10968;DHT22;5536;49.602;10.980;2022-09-16T02:13:01;13.70;99.90
10968;DHT22;5536;49.602;10.980;2022-09-16T02:15:32;13.70;99.90
10968;DHT22;5536;49.602;10.980;2022-09-16T02:18:04;13.70;99.90
10968;DHT22;5536;49.602;10.980;2022-09-16T02:20:35;13.70;99.90
10968;DHT22;5536;49.602;10.980;2022-09-16T02:23:06;13.70;99.90
10968;DHT22;5536;49.602;10.980;2022-09-16T02:25:38;13.70;99.90
10968;DHT22;5536;49.602;10.980;2022-09-16T02:28:09;13.70;99.90
10968;DHT22;5536;49.602;10.980;2022-09-16T02:30:39;13.70;99.90
10968;DHT22;5536;49.602;10.980;2022-09-16T02:33:11;13.70;99.90
10968;DHT22;5536;49.602;10.980;2022-09-16T02:35:40;13.70;99.90
10968;DHT22;5536;49.602;10.980;2022-09-16T02:38:13;13.70;99.90
10968;DHT22;5536;49.602;10.980;2022-09-16T02:40:45;13.60;99.90
10968;DHT22;5536;49.602;10.980;2022-09-16T02:43:14;13.60;99.90
10968;DHT22;5536;49.602;10.980;2022-09-16T02:45:47;13.70;99.90
10968;DHT22;5536;49.602;10.980;2022-09-16T02:48:28;13.70;99.90
10968;DHT22;5536;49.602;10.980;2022-09-16T02:51:03;13.70;99.90
10968;DHT22;5536;49.602;10.980;2022-09-16T02:53:37;13.70;99.90
10968;DHT22;5536;49.602;10.980;2022-09-16T02:56:10;13.70;99.90
10968;DHT22;5536;49.602;10.980;2022-09-16T02:58:40;13.70;99.90
10968;DHT22;5536;49.602;10.980;2022-09-16T03:01:10;13.60;99.90
10968;DHT22;5536;49.602;10.980;2022-09-16T03:03:41;13.60;99.90
10968;DHT22;5536;49.602;10.980;2022-09-16T03:06:17;13.60;99.90
10968;DHT22;5536;49.602;10.980;2022-09-16T03:08:45;13.60;99.90
10968;DHT22;5536;49.602;10.980;2022-09-16T03:11:24;13.60;99.90
10968;DHT22;5536;49.602;10.980;2022-09-16T03:13:59;13.60;99.90
10968;DHT22;5536;49.602;10.980;2022-09-16T03:16:35;13.60;99.90
10968;DHT22;5536;49.602;10.980;2022-09-16T03:19:13;13.60;99.90
10968;DHT22;5536;49.602;10.980;2022-09-16T03:21:50;13.60;99.90
10968;DHT22;5536;49.602;10.980;2022-09-16T03:24:25;13.50;99.90
10968;DHT22;5536;49.602;10.980;2022-09-16T03:26:59;13.50;99.90
10968;DHT22;5536;49.602;10.980;2022-09-16T03:29:32;13.50;99.90
10968;DHT22;5536;49.602;10.980;2022-09-16T03:32:06;13.50;99.90
10968;DHT22;5536;49.602;10.980;2022-09-16T03:34:42;13.50;99.90
10968;DHT22;5536;49.602;10.980;2022-09-16T03:37:11;13.50;99.90
10968;DHT22;5536;49.602;10.980;2022-09-16T03:39:40;13.50;99.90
10968;DHT22;5536;49.602;10.980;2022-09-16T03:42:08;13.50;99.90
10968;DHT22;5536;49.602;10.980;2022-09-16T03:44:37;13.50;99.90
10968;DHT22;5536;49.602;10.980;2022-09-16T03:47:06;13.60;99.90
10968;DHT22;5536;49.602;10.980;2022-09-16T03:49:34;13.50;99.90
10968;DHT22;5536;49.602;10.980;2022-09-16T03:52:02;13.50;99.90
10968;DHT22;5536;49.602;10.980;2022-09-16T03:54:30;13.70;99.90
10968;DHT22;5536;49.602;10.980;2022-09-16T03:56:57;13.60;99.90
10968;DHT22;5536;49.602;10.980;2022-09-16T03:59:25;13.60;99.90
10968;DHT22;5536;49.602;10.980;2022-09-16T04:01:52;13.60;99.90
10968;DHT22;5536;49.602;10.980;2022-09-16T04:04:19;13.70;99.90
10968;DHT22;5536;49.602;10.980;2022-09-16T04:06:46;13.60;99.90
10968;DHT22;5536;49.602;10.980;2022-09-16T04:09:15;13.60;99.90
10968;DHT22;5536;49.602;10.980;2022-09-16T04:11:42;13.60;99.90
10968;DHT22;5536;49.602;10.980;2022-09-16T04:14:09;13.70;99.90
10968;DHT22;5536;49.602;10.980;2022-09-16T04:16:36;13.50;99.90
10968;DHT22;5536;49.602;10.980;2022-09-16T04:19:03;13.50;99.90
10968;DHT22;5536;49.602;10.980;2022-09-16T04:21:31;13.50;99.90
10968;DHT22;5536;49.602;10.980;2022-09-16T04:23:59;13.60;99.90
10968;DHT22;5536;49.602;10.980;2022-09-16T04:26:27;13.50;99.90
10968;DHT22;5536;49.602;10.980;2022-09-16T04:28:54;13.60;99.90
10968;DHT22;5536;49.602;10.980;2022-09-16T04:31:21;13.60;99.90
10968;DHT22;5536;49.602;10.980;2022-09-16T04:33:49;13.60;99.90
10968;DHT22;5536;49.602;10.980;2022-09-16T04:36:18;13.50;99.90
10968;DHT22;5536;49.602;10.980;2022-09-16T04:38:46;13.50;99.90
10968;DHT22;5536;49.602;10.980;2022-09-16T04:41:15;13.50;99.90
10968;DHT22;5536;49.602;10.980;2022-09-16T04:43:45;13.40;99.90
10968;DHT22;5536;49.602;10.980;2022-09-16T04:46:12;13.40;99.90
10968;DHT22;5536;49.602;10.980;2022-09-16T04:48:39;13.40;99.90
10968;DHT22;5536;49.602;10.980;2022-09-16T04:51:08;13.40;99.90
10968;DHT22;5536;49.602;10.980;2022-09-16T04:53:36;13.40;99.90
10968;DHT22;5536;49.602;10.980;2022-09-16T04:56:05;13.20;99.90
10968;DHT22;5536;49.602;10.980;2022-09-16T04:58:32;13.30;99.90
10968;DHT22;5536;49.602;10.980;2022-09-16T05:01:06;13.50;99.90
10968;DHT22;5536;49.602;10.980;2022-09-16T05:03:37;13.30;99.90
10968;DHT22;5536;49.602;10.980;2022-09-16T05:06:06;13.30;99.90
10968;DHT22;5536;49.602;10.980;2022-09-16T05:08:33;13.40;99.90
10968;DHT22;5536;49.602;10.980;2022-09-16T05:11:05;13.50;99.90
10968;DHT22;5536;49.602;10.980;2022-09-16T05:13:33;13.50;99.90
10968;DHT22;5536;49.602;10.980;2022-09-16T05:16:02;13.40;99.90
10968;DHT22;5536;49.602;10.980;2022-09-16T05:18:31;13.40;99.90
10968;DHT22;5536;49.602;10.980;2022-09-16T05:20:59;13.40;99.90
10968;DHT22;5536;49.602;10.980;2022-09-16T05:23:26;13.40;99.90
10968;DHT22;5536;49.602;10.980;2022-09-16T05:25:54;13.40;99.90
10968;DHT22;5536;49.602;10.980;2022-09-16T05:28:21;13.40;99.90
10968;DHT22;5536;49.602;10.980;2022-09-16T05:30:48;13.40;99.90
10968;DHT22;5536;49.602;10.980;2022-09-16T05:35:45;13.40;99.90
10968;DHT22;5536;49.602;10.980;2022-09-16T05:38:12;13.40;99.90
10968;DHT22;5536;49.602;10.980;2022-09-16T05:40:41;13.40;99.90
10968;DHT22;5536;49.602;10.980;2022-09-16T05:43:08;13.40;99.90
10968;DHT22;5536;49.602;10.980;2022-09-16T05:45:35;13.40;99.90
10968;DHT22;5536;49.602;10.980;2022-09-16T05:48:02;13.50;99.90
10968;DHT22;5536;49.602;10.980;2022-09-16T05:50:29;13.50;99.90
10968;DHT22;5536;49.602;10.980;2022-09-16T05:52:57;13.50;99.90
10968;DHT22;5536;49.602;10.980;2022-09-16T05:55:24;13.50;99.90
10968;DHT22;5536;49.602;10.980;2022-09-16T05:57:52;13.50;99.90
10968;DHT22;5536;49.602;10.980;2022-09-16T06:00:19;13.50;99.90
10968;DHT22;5536;49.602;10.980;2022-09-16T06:02:47;13.50;99.90
10968;DHT22;5536;49.602;10.980;2022-09-16T06:05:14;13.50;99.90
10968;DHT22;5536;49.602;10.980;2022-09-16T06:07:44;13.60;99.90
10968;DHT22;5536;49.602;10.980;2022-09-16T06:10:13;13.60;99.90
10968;DHT22;5536;49.602;10.980;2022-09-16T06:12:40;13.60;99.90
10968;DHT22;5536;49.602;10.980;2022-09-16T06:15:08;13.60;99.90
10968;DHT22;5536;49.602;10.980;2022-09-16T06:17:35;13.60;99.90
10968;DHT22;5536;49.602;10.980;2022-09-16T06:20:02;13.50;99.90
10968;DHT22;5536;49.602;10.980;2022-09-16T06:22:30;13.60;99.90
10968;DHT22;5536;49.602;10.980;2022-09-16T06:24:57;13.50;99.90
10968;DHT22;5536;49.602;10.980;2022-09-16T06:27:29;13.60;99.90
10968;DHT22;5536;49.602;10.980;2022-09-16T06:29:56;13.60;99.90
10968;DHT22;5536;49.602;10.980;2022-09-16T06:32:23;13.50;99.90
10968;DHT22;5536;49.602;10.980;2022-09-16T06:34:51;13.60;99.90
10968;DHT22;5536;49.602;10.980;2022-09-16T06:37:21;13.60;99.90
10968;DHT22;5536;49.602;10.980;2022-09-16T06:39:52;13.60;99.90
10968;DHT22;5536;49.602;10.980;2022-09-16T06:42:19;13.60;99.90
10968;DHT22;5536;49.602;10.980;2022-09-16T06:44:47;13.60;99.90
10968;DHT22;5536;49.602;10.980;2022-09-16T06:47:15;13.60;99.90
10968;DHT22;5536;49.602;10.980;2022-09-16T06:49:45;13.60;99.90
10968;DHT22;5536;49.602;10.980;2022-09-16T06:52:12;13.50;99.90
10968;DHT22;5536;49.602;10.980;2022-09-16T06:54:39;13.50;99.90
10968;DHT22;5536;49.602;10.980;2022-09-16T06:57:09;13.50;99.90
10968;DHT22;5536;49.602;10.980;2022-09-16T07:00:31;13.50;99.90
10968;DHT22;5536;49.602;10.980;2022-09-16T07:03:10;13.50;99.90
10968;DHT22;5536;49.602;10.980;2022-09-16T07:05:38;13.60;99.90
10968;DHT22;5536;49.602;10.980;2022-09-16T07:08:05;13.60;99.90
10968;DHT22;5536;49.602;10.980;2022-09-16T07:10:33;13.70;99.90
10968;DHT22;5536;49.602;10.980;2022-09-16T07:13:00;13.70;99.90
10968;DHT22;5536;49.602;10.980;2022-09-16T07:15:28;13.80;99.90
10968;DHT22;5536;49.602;10.980;2022-09-16T07:17:55;13.70;99.90
10968;DHT22;5536;49.602;10.980;2022-09-16T07:20:22;13.80;99.90
10968;DHT22;5536;49.602;10.980;2022-09-16T07:22:49;13.80;99.90
10968;DHT22;5536;49.602;10.980;2022-09-16T07:25:18;13.90;99.90
10968;DHT22;5536;49.602;10.980;2022-09-16T07:27:45;13.90;99.90
10968;DHT22;5536;49.602;10.980;2022-09-16T07:30:13;14.00;99.90
10968;DHT22;5536;49.602;10.980;2022-09-16T07:32:41;13.90;99.90
10968;DHT22;5536;49.602;10.980;2022-09-16T07:35:08;13.90;99.90
10968;DHT22;5536;49.602;10.980;2022-09-16T07:37:35;14.00;99.90
10968;DHT22;5536;49.602;10.980;2022-09-16T07:40:03;14.10;99.90
10968;DHT22;5536;49.602;10.980;2022-09-16T07:42:30;14.10;99.90
10968;DHT22;5536;49.602;10.980;2022-09-16T07:44:58;14.20;99.90
10968;DHT22;5536;49.602;10.980;2022-09-16T07:47:26;14.10;99.90
10968;DHT22;5536;49.602;10.980;2022-09-16T07:49:54;14.20;99.90
10968;DHT22;5536;49.602;10.980;2022-09-16T07:52:22;14.20;99.90
10968;DHT22;5536;49.602;10.980;2022-09-16T07:54:53;14.20;99.90
10968;DHT22;5536;49.602;10.980;2022-09-16T07:57:21;14.20;99.90
10968;DHT22;5536;49.602;10.980;2022-09-16T07:59:48;14.20;99.90
10968;DHT22;5536;49.602;10.980;2022-09-16T08:02:15;14.20;99.90
10968;DHT22;5536;49.602;10.980;2022-09-16T08:04:42;14.20;99.90
10968;DHT22;5536;49.602;10.980;2022-09-16T08:07:11;14.10;99.90
10968;DHT22;5536;49.602;10.980;2022-09-16T08:09:38;14.00;84.30
10968;DHT22;5536;49.602;10.980;2022-09-16T08:12:06;14.00;97.80
10968;DHT22;5536;49.602;10.980;2022-09-16T08:14:35;13.90;90.00
10968;DHT22;5536;49.602;10.980;2022-09-16T08:17:03;13.90;50.40
10968;DHT22;5536;49.602;10.980;2022-09-16T08:19:30;13.90;78.30
10968;DHT22;5536;49.602;10.980;2022-09-16T08:21:57;14.00;63.20
10968;DHT22;5536;49.602;10.980;2022-09-16T08:24:26;14.10;76.70
10968;DHT22;5536;49.602;10.980;2022-09-16T08:26:53;14.20;47.30
10968;DHT22;5536;49.602;10.980;2022-09-16T08:29:20;14.40;99.90
10968;DHT22;5536;49.602;10.980;2022-09-16T08:31:50;14.50;26.20
10968;DHT22;5536;49.602;10.980;2022-09-16T08:34:17;14.60;2.90
10968;DHT22;5536;49.602;10.980;2022-09-16T08:36:44;14.70;2.60
10968;DHT22;5536;49.602;10.980;2022-09-16T08:39:12;14.70;1.00
10968;DHT22;5536;49.602;10.980;2022-09-16T08:44:52;14.90;1.00
10968;DHT22;5536;49.602;10.980;2022-09-16T08:47:31;15.00;1.00
10968;DHT22;5536;49.602;10.980;2022-09-16T08:50:02;15.10;7.80
10968;DHT22;5536;49.602;10.980;2022-09-16T08:52:31;15.00;1.00
10968;DHT22;5536;49.602;10.980;2022-09-16T08:55:02;15.00;1.00
10968;DHT22;5536;49.602;10.980;2022-09-16T08:57:37;14.90;1.00
10968;DHT22;5536;49.602;10.980;2022-09-16T09:00:14;14.90;1.00
10968;DHT22;5536;49.602;10.980;2022-09-16T09:02:50;14.90;1.00
10968;DHT22;5536;49.602;10.980;2022-09-16T09:05:29;14.90;1.00
10968;DHT22;5536;49.602;10.980;2022-09-16T09:08:16;15.00;1.00
10968;DHT22;5536;49.602;10.980;2022-09-16T09:10:48;15.00;1.00
10968;DHT22;5536;49.602;10.980;2022-09-16T09:13:43;15.10;1.00
10968;DHT22;5536;49.602;10.980;2022-09-16T09:16:20;15.20;1.00
10968;DHT22;5536;49.602;10.980;2022-09-16T09:18:58;15.30;1.00
10968;DHT22;5536;49.602;10.980;2022-09-16T09:21:32;15.30;1.00
10968;DHT22;5536;49.602;10.980;2022-09-16T09:24:15;15.30;1.00
10968;DHT22;5536;49.602;10.980;2022-09-16T09:26:49;15.50;1.00
10968;DHT22;5536;49.602;10.980;2022-09-16T09:29:39;15.60;1.00
10968;DHT22;5536;49.602;10.980;2022-09-16T09:32:20;15.70;1.00
10968;DHT22;5536;49.602;10.980;2022-09-16T09:35:01;15.60;1.00
10968;DHT22;5536;49.602;10.980;2022-09-16T09:37:49;15.50;99.90
10968;DHT22;5536;49.602;10.980;2022-09-16T09:40:33;15.50;1.00
10968;DHT22;5536;49.602;10.980;2022-09-16T09:43:08;15.50;99.90
10968;DHT22;5536;49.602;10.980;2022-09-16T09:45:39;15.50;1.00
10968;DHT22;5536;49.602;10.980;2022-09-16T09:48:15;15.40;99.90
10968;DHT22;5536;49.602;10.980;2022-09-16T09:50:46;15.50;99.90
10968;DHT22;5536;49.602;10.980;2022-09-16T09:53:17;15.60;99.90
10968;DHT22;5536;49.602;10.980;2022-09-16T09:55:45;16.00;99.90
10968;DHT22;5536;49.602;10.980;2022-09-16T09:58:18;16.00;99.90
10968;DHT22;5536;49.602;10.980;2022-09-16T10:00:47;16.00;99.90
10968;DHT22;5536;49.602;10.980;2022-09-16T10:03:18;16.00;99.90
10968;DHT22;5536;49.602;10.980;2022-09-16T10:05:47;15.90;99.90
10968;DHT22;5536;49.602;10.980;2022-09-16T10:08:22;15.70;99.90
10968;DHT22;5536;49.602;10.980;2022-09-16T10:10:53;15.70;99.90
10968;DHT22;5536;49.602;10.980;2022-09-16T10:13:22;15.70;99.90
10968;DHT22;5536;49.602;10.980;2022-09-16T10:15:53;15.70;99.90
10968;DHT22;5536;49.602;10.980;2022-09-16T10:18:26;15.80;99.90
10968;DHT22;5536;49.602;10.980;2022-09-16T10:21:02;15.70;99.90
10968;DHT22;5536;49.602;10.980;2022-09-16T10:23:30;15.80;99.90
10968;DHT22;5536;49.602;10.980;2022-09-16T10:26:06;15.80;99.90
10968;DHT22;5536;49.602;10.980;2022-09-16T10:28:34;16.20;99.90
10968;DHT22;5536;49.602;10.980;2022-09-16T10:34:49;15.90;99.90
10968;DHT22;5536;49.602;10.980;2022-09-16T10:37:17;15.80;99.90
10968;DHT22;5536;49.602;10.980;2022-09-16T10:39:50;15.80;99.90
10968;DHT22;5536;49.602;10.980;2022-09-16T10:42:20;16.00;99.90
10968;DHT22;5536;49.602;10.980;2022-09-16T10:44:48;16.10;99.90
10968;DHT22;5536;49.602;10.980;2022-09-16T10:47:19;16.00;99.90
10968;DHT22;5536;49.602;10.980;2022-09-16T10:49:50;15.90;99.90
10968;DHT22;5536;49.602;10.980;2022-09-16T10:52:20;16.00;99.90
10968;DHT22;5536;49.602;10.980;2022-09-16T10:54:48;16.00;99.90
10968;DHT22;5536;49.602;10.980;2022-09-16T10:57:24;16.00;99.90
10968;DHT22;5536;49.602;10.980;2022-09-16T11:00:00;15.80;99.90
10968;DHT22;5536;49.602;10.980;2022-09-16T11:05:37;15.60;99.90
10968;DHT22;5536;49.602;10.980;2022-09-16T11:08:13;15.50;99.90
10968;DHT22;5536;49.602;10.980;2022-09-16T11:10:46;15.50;99.90
10968;DHT22;5536;49.602;10.980;2022-09-16T11:13:31;15.30;99.90
10968;DHT22;5536;49.602;10.980;2022-09-16T11:16:12;15.20;99.90
10968;DHT22;5536;49.602;10.980;2022-09-16T11:18:51;15.10;99.90
10968;DHT22;5536;49.602;10.980;2022-09-16T11:21:34;15.00;99.90
10968;DHT22;5536;49.602;10.980;2022-09-16T11:26:58;15.00;99.90
10968;DHT22;5536;49.602;10.980;2022-09-16T11:35:34;15.00;99.90
10968;DHT22;5536;49.602;10.980;2022-09-16T11:38:14;15.00;99.90
10968;DHT22;5536;49.602;10.980;2022-09-16T11:40:46;14.90;99.90
10968;DHT22;5536;49.602;10.980;2022-09-16T11:43:32;14.90;99.90
10968;DHT22;5536;49.602;10.980;2022-09-16T11:46:08;15.00;99.90
10968;DHT22;5536;49.602;10.980;2022-09-16T11:48:48;15.10;99.90
10968;DHT22;5536;49.602;10.980;2022-09-16T11:51:30;15.10;99.90
10968;DHT22;5536;49.602;10.980;2022-09-16T11:54:12;15.10;99.90
10968;DHT22;5536;49.602;10.980;2022-09-16T11:56:47;15.20;99.90
10968;DHT22;5536;49.602;10.980;2022-09-16T11:59:21;15.20;99.90
10968;DHT22;5536;49.602;10.980;2022-09-16T12:01:54;15.20;99.90
10968;DHT22;5536;49.602;10.980;2022-09-16T12:04:25;15.20;99.90
10968;DHT22;5536;49.602;10.980;2022-09-16T12:06:59;15.20;99.90
10968;DHT22;5536;49.602;10.980;2022-09-16T12:09:36;15.20;99.90
10968;DHT22;5536;49.602;10.980;2022-09-16T12:12:09;15.10;99.90
10968;DHT22;5536;49.602;10.980;2022-09-16T12:14:40;15.10;99.90
10968;DHT22;5536;49.602;10.980;2022-09-16T12:17:13;15.20;99.90
10968;DHT22;5536;49.602;10.980;2022-09-16T12:19:46;15.20;99.90
10968;DHT22;5536;49.602;10.980;2022-09-16T12:22:19;15.10;99.90
10968;DHT22;5536;49.602;10.980;2022-09-16T12:25:07;15.10;99.90
10968;DHT22;5536;49.602;10.980;2022-09-16T12:27:43;15.00;99.90
10968;DHT22;5536;49.602;10.980;2022-09-16T12:30:16;14.90;99.90
10968;DHT22;5536;49.602;10.980;2022-09-16T12:33:00;14.90;99.90
10968;DHT22;5536;49.602;10.980;2022-09-16T12:35:33;15.00;99.90
10968;DHT22;5536;49.602;10.980;2022-09-16T12:38:01;14.90;99.90
10968;DHT22;5536;49.602;10.980;2022-09-16T12:40:36;15.00;99.90
10968;DHT22;5536;49.602;10.980;2022-09-16T12:43:50;15.20;99.90
10968;DHT22;5536;49.602;10.980;2022-09-16T12:49:53;15.70;99.90
10968;DHT22;5536;49.602;10.980;2022-09-16T12:52:40;15.80;99.90
10968;DHT22;5536;49.602;10.980;2022-09-16T12:55:39;15.60;99.90
10968;DHT22;5536;49.602;10.980;2022-09-16T12:58:34;15.50;99.90
10968;DHT22;5536;49.602;10.980;2022-09-16T13:01:15;15.40;99.90
10968;DHT22;5536;49.602;10.980;2022-09-16T13:03:48;15.30;99.90
10968;DHT22;5536;49.602;10.980;2022-09-16T13:06:25;15.20;99.90
10968;DHT22;5536;49.602;10.980;2022-09-16T13:08:53;15.10;99.90
10968;DHT22;5536;49.602;10.980;2022-09-16T13:11:24;14.90;99.90
10968;DHT22;5536;49.602;10.980;2022-09-16T13:13:53;14.80;99.90
10968;DHT22;5536;49.602;10.980;2022-09-16T13:16:31;14.70;99.90
10968;DHT22;5536;49.602;10.980;2022-09-16T13:19:33;14.50;99.90
10968;DHT22;5536;49.602;10.980;2022-09-16T13:24:59;16.90;99.90
10968;DHT22;5536;49.602;10.980;2022-09-16T13:27:31;17.20;99.90
10968;DHT22;5536;49.602;10.980;2022-09-16T13:30:31;16.60;99.90
10968;DHT22;5536;49.602;10.980;2022-09-16T13:35:45;15.80;99.90
10968;DHT22;5536;49.602;10.980;2022-09-16T13:38:33;15.90;99.90
10968;DHT22;5536;49.602;10.980;2022-09-16T13:41:05;15.80;99.90
10968;DHT22;5536;49.602;10.980;2022-09-16T13:43:36;15.70;99.90
10968;DHT22;5536;49.602;10.980;2022-09-16T13:46:06;16.50;99.90
10968;DHT22;5536;49.602;10.980;2022-09-16T13:48:38;18.10;99.90
10968;DHT22;5536;49.602;10.980;2022-09-16T13:51:12;19.20;99.90
10968;DHT22;5536;49.602;10.980;2022-09-16T13:53:44;19.90;99.90
10968;DHT22;5536;49.602;10.980;2022-09-16T13:56:36;19.70;99.90
10968;DHT22;5536;49.602;10.980;2022-09-16T13:59:18;19.70;99.80
10968;DHT22;5536;49.602;10.980;2022-09-16T14:01:55;19.80;98.10
10968;DHT22;5536;49.602;10.980;2022-09-16T14:04:40;20.10;96.70
10968;DHT22;5536;49.602;10.980;2022-09-16T14:07:18;20.30;94.70
10968;DHT22;5536;49.602;10.980;2022-09-16T14:09:53;20.50;94.20
10968;DHT22;5536;49.602;10.980;2022-09-16T14:12:30;19.70;94.40
10968;DHT22;5536;49.602;10.980;2022-09-16T14:15:02;19.10;97.70
10968;DHT22;5536;49.602;10.980;2022-09-16T14:17:34;18.40;98.60
10968;DHT22;5536;49.602;10.980;2022-09-16T14:20:03;17.80;99.90
10968;DHT22;5536;49.602;10.980;2022-09-16T14:22:34;17.60;99.90
10968;DHT22;5536;49.602;10.980;2022-09-16T14:25:01;17.50;99.90
10968;DHT22;5536;49.602;10.980;2022-09-16T14:27:29;17.60;95.50
10968;DHT22;5536;49.602;10.980;2022-09-16T14:30:03;17.70;93.10
10968;DHT22;5536;49.602;10.980;2022-09-16T14:32:32;17.50;92.50
10968;DHT22;5536;49.602;10.980;2022-09-16T14:35:02;17.60;93.90
10968;DHT22;5536;49.602;10.980;2022-09-16T14:37:30;17.70;95.00
10968;DHT22;5536;49.602;10.980;2022-09-16T14:40:03;17.70;94.70
10968;DHT22;5536;49.602;10.980;2022-09-16T14:42:31;17.40;95.70
10968;DHT22;5536;49.602;10.980;2022-09-16T14:44:59;17.20;95.40
10968;DHT22;5536;49.602;10.980;2022-09-16T14:47:29;17.00;95.60
10968;DHT22;5536;49.602;10.980;2022-09-16T14:50:03;16.90;96.00
10968;DHT22;5536;49.602;10.980;2022-09-16T14:52:32;16.90;95.10
10968;DHT22;5536;49.602;10.980;2022-09-16T14:55:00;17.00;95.10
10968;DHT22;5536;49.602;10.980;2022-09-16T14:57:28;17.00;95.30
10968;DHT22;5536;49.602;10.980;2022-09-16T15:00:02;17.00;93.90
10968;DHT22;5536;49.602;10.980;2022-09-16T15:02:36;17.00;93.20
10968;DHT22;5536;49.602;10.980;2022-09-16T15:05:16;16.90;93.00
10968;DHT22;5536;49.602;10.980;2022-09-16T15:07:45;16.80;93.00
10968;DHT22;5536;49.602;10.980;2022-09-16T15:10:19;16.80;93.30
10968;DHT22;5536;49.602;10.980;2022-09-16T15:12:49;16.60;93.80
10968;DHT22;5536;49.602;10.980;2022-09-16T15:15:20;16.60;94.00
10968;DHT22;5536;49.602;10.980;2022-09-16T15:17:55;16.60;94.20
10968;DHT22;5536;49.602;10.980;2022-09-16T15:20:24;16.40;94.40
10968;DHT22;5536;49.602;10.980;2022-09-16T15:22:52;16.40;94.80
10968;DHT22;5536;49.602;10.980;2022-09-16T15:25:21;16.40;95.30
10968;DHT22;5536;49.602;10.980;2022-09-16T15:27:49;16.40;95.10
10968;DHT22;5536;49.602;10.980;2022-09-16T15:30:20;16.40;95.60
10968;DHT22;5536;49.602;10.980;2022-09-16T15:32:48;16.40;95.70
10968;DHT22;5536;49.602;10.980;2022-09-16T15:35:21;16.40;95.80
10968;DHT22;5536;49.602;10.980;2022-09-16T15:37:51;16.40;95.60
10968;DHT22;5536;49.602;10.980;2022-09-16T15:40:30;16.30;96.10
10968;DHT22;5536;49.602;10.980;2022-09-16T15:43:17;16.30;96.30
10968;DHT22;5536;49.602;10.980;2022-09-16T15:45:57;16.30;97.10
10968;DHT22;5536;49.602;10.980;2022-09-16T15:48:28;16.30;97.20
10968;DHT22;5536;49.602;10.980;2022-09-16T15:51:00;16.30;97.20
10968;DHT22;5536;49.602;10.980;2022-09-16T15:53:50;16.20;97.60
10968;DHT22;5536;49.602;10.980;2022-09-16T15:56:24;16.30;97.80
10968;DHT22;5536;49.602;10.980;2022-09-16T15:58:56;16.30;98.60
10968;DHT22;5536;49.602;10.980;2022-09-16T16:01:38;16.20;98.40
10968;DHT22;5536;49.602;10.980;2022-09-16T16:04:07;16.10;99.80
10968;DHT22;5536;49.602;10.980;2022-09-16T16:06:48;15.70;99.90
10968;DHT22;5536;49.602;10.980;2022-09-16T16:09:33;14.90;99.90
10968;DHT22;5536;49.602;10.980;2022-09-16T16:12:02;14.20;99.90
10968;DHT22;5536;49.602;10.980;2022-09-16T16:14:31;13.90;99.90
10968;DHT22;5536;49.602;10.980;2022-09-16T16:17:00;13.60;99.90
10968;DHT22;5536;49.602;10.980;2022-09-16T16:19:28;13.40;99.90
10968;DHT22;5536;49.602;10.980;2022-09-16T16:21:56;13.40;99.90
10968;DHT22;5536;49.602;10.980;2022-09-16T16:24:25;13.40;99.90
10968;DHT22;5536;49.602;10.980;2022-09-16T16:26:53;13.40;99.90
10968;DHT22;5536;49.602;10.980;2022-09-16T16:29:20;13.30;99.90
10968;DHT22;5536;49.602;10.980;2022-09-16T16:32:05;13.30;99.90
10968;DHT22;5536;49.602;10.980;2022-09-16T16:34:33;13.30;99.90